sensor_id;sensor_type;location;lat;lon;timestamp;pressure;altitude;pressure_sealevel;temperature;humidity
79584;BME280;69053;57.338;18.700;2023-05-23T00:03:15;101782.38;;;3.67;73.46
79584;BME280;69053;57.338;18.700;2023-05-23T00:08:16;101777.00;;;3.57;73.85
79584;BME280;69053;57.338;18.700;2023-05-23T00:13:16;101774.47;;;3.46;74.46
79584;BME280;69053;57.338;18.700;2023-05-23T00:18:17;101769.22;;;3.44;74.35
79584;BME280;69053;57.338;18.700;2023-05-23T00:23:18;101766.25;;;3.37;74.81
79584;BME280;69053;57.338;18.700;2023-05-23T00:28:20;101759.75;;;3.30;75.32
79584;BME280;69053;57.338;18.700;2023-05-23T00:33:21;101762.00;;;3.25;75.43
79584;BME280;69053;57.338;18.700;2023-05-23T00:38:22;101748.81;;;3.22;75.36
79584;BME280;69053;57.338;18.700;2023-05-23T00:43:23;101746.41;;;3.19;75.41
79584;BME280;69053;57.338;18.700;2023-05-23T00:48:25;101752.63;;;3.19;75.75
79584;BME280;69053;57.338;18.700;2023-05-23T00:53:26;101744.41;;;3.21;75.50
79584;BME280;69053;57.338;18.700;2023-05-23T00:58:26;101746.41;;;3.19;75.67
79584;BME280;69053;57.338;18.700;2023-05-23T01:03:27;101749.66;;;3.13;75.91
79584;BME280;69053;57.338;18.700;2023-05-23T01:08:28;101738.75;;;3.14;75.79
79584;BME280;69053;57.338;18.700;2023-05-23T01:13:55;101738.19;;;3.11;75.86
79584;BME280;69053;57.338;18.700;2023-05-23T01:19:48;101733.94;;;3.08;76.68
79584;BME280;69053;57.338;18.700;2023-05-23T01:24:42;101728.84;;;3.05;76.81
79584;BME280;69053;57.338;18.700;2023-05-23T01:29:47;101732.50;;;3.04;76.76
79584;BME280;69053;57.338;18.700;2023-05-23T01:34:52;101731.69;;;3.04;76.53
79584;BME280;69053;57.338;18.700;2023-05-23T01:39:52;101724.88;;;2.99;76.76
79584;BME280;69053;57.338;18.700;2023-05-23T01:44:53;101724.59;;;2.93;77.07
79584;BME280;69053;57.338;18.700;2023-05-23T01:49:54;101725.16;;;2.87;76.89
79584;BME280;69053;57.338;18.700;2023-05-23T01:54:55;101729.53;;;2.78;77.85
79584;BME280;69053;57.338;18.700;2023-05-23T01:59:56;101731.09;;;2.71;78.40
79584;BME280;69053;57.338;18.700;2023-05-23T02:04:57;101723.16;;;2.69;77.84
79584;BME280;69053;57.338;18.700;2023-05-23T02:09:58;101707.41;;;2.65;78.33
79584;BME280;69053;57.338;18.700;2023-05-23T02:14:59;101704.47;;;2.68;78.34
79584;BME280;69053;57.338;18.700;2023-05-23T02:20:00;101692.44;;;2.72;78.36
79584;BME280;69053;57.338;18.700;2023-05-23T02:25:00;101684.63;;;2.78;77.76
79584;BME280;69053;57.338;18.700;2023-05-23T02:30:01;101676.16;;;2.83;77.63
79584;BME280;69053;57.338;18.700;2023-05-23T02:35:01;101676.00;;;2.85;77.84
79584;BME280;69053;57.338;18.700;2023-05-23T02:40:02;101664.56;;;2.92;77.88
79584;BME280;69053;57.338;18.700;2023-05-23T02:45:03;101658.56;;;2.98;77.71
79584;BME280;69053;57.338;18.700;2023-05-23T02:50:04;101650.91;;;3.04;78.43
79584;BME280;69053;57.338;18.700;2023-05-23T02:55:05;101656.59;;;3.10;78.44
79584;BME280;69053;57.338;18.700;2023-05-23T03:00:06;101652.59;;;3.14;78.64
79584;BME280;69053;57.338;18.700;2023-05-23T03:05:09;101645.75;;;3.30;78.50
79584;BME280;69053;57.338;18.700;2023-05-23T03:10:09;101642.34;;;3.47;78.46
79584;BME280;69053;57.338;18.700;2023-05-23T03:15:10;101633.91;;;3.60;78.54
79584;BME280;69053;57.338;18.700;2023-05-23T03:20:10;101636.38;;;3.81;78.21
79584;BME280;69053;57.338;18.700;2023-05-23T03:25:11;101626.34;;;4.01;78.36
79584;BME280;69053;57.338;18.700;2023-05-23T03:30:12;101630.47;;;4.23;78.34
79584;BME280;69053;57.338;18.700;2023-05-23T03:35:12;101618.78;;;4.50;78.48
79584;BME280;69053;57.338;18.700;2023-05-23T03:40:13;101621.78;;;4.83;78.00
79584;BME280;69053;57.338;18.700;2023-05-23T03:45:14;101615.94;;;5.14;77.74
79584;BME280;69053;57.338;18.700;2023-05-23T03:50:15;101613.75;;;5.44;78.15
79584;BME280;69053;57.338;18.700;2023-05-23T03:55:15;101610.53;;;5.75;78.19
79584;BME280;69053;57.338;18.700;2023-05-23T04:00:16;101606.81;;;6.10;77.90
79584;BME280;69053;57.338;18.700;2023-05-23T04:05:18;101593.69;;;6.48;78.06
79584;BME280;69053;57.338;18.700;2023-05-23T04:10:18;101592.16;;;6.95;77.79
79584;BME280;69053;57.338;18.700;2023-05-23T04:15:19;101583.28;;;7.34;77.13
79584;BME280;69053;57.338;18.700;2023-05-23T04:20:20;101585.81;;;7.75;76.12
79584;BME280;69053;57.338;18.700;2023-05-23T04:25:21;101576.81;;;8.14;75.72
79584;BME280;69053;57.338;18.700;2023-05-23T04:30:23;101573.97;;;8.62;74.78
79584;BME280;69053;57.338;18.700;2023-05-23T04:35:23;101563.22;;;9.07;73.32
79584;BME280;69053;57.338;18.700;2023-05-23T04:40:26;101565.78;;;9.53;72.15
79584;BME280;69053;57.338;18.700;2023-05-23T04:45:26;101556.81;;;9.89;71.37
79584;BME280;69053;57.338;18.700;2023-05-23T04:50:28;101558.69;;;10.25;70.22
79584;BME280;69053;57.338;18.700;2023-05-23T04:55:32;101565.63;;;10.70;68.40
79584;BME280;69053;57.338;18.700;2023-05-23T05:00:36;101558.78;;;11.03;67.64
79584;BME280;69053;57.338;18.700;2023-05-23T05:05:36;101545.16;;;11.38;67.13
79584;BME280;69053;57.338;18.700;2023-05-23T05:10:40;101541.34;;;11.74;66.80
79584;BME280;69053;57.338;18.700;2023-05-23T05:15:41;101547.41;;;12.11;65.90
79584;BME280;69053;57.338;18.700;2023-05-23T05:20:41;101538.63;;;12.49;63.94
79584;BME280;69053;57.338;18.700;2023-05-23T05:25:42;101524.75;;;12.84;62.71
79584;BME280;69053;57.338;18.700;2023-05-23T05:30:43;101515.25;;;13.13;61.61
79584;BME280;69053;57.338;18.700;2023-05-23T05:35:45;101515.00;;;13.41;60.69
79584;BME280;69053;57.338;18.700;2023-05-23T05:40:45;101516.41;;;13.64;60.82
79584;BME280;69053;57.338;18.700;2023-05-23T05:45:46;101518.78;;;13.92;60.20
79584;BME280;69053;57.338;18.700;2023-05-23T05:50:47;101530.03;;;14.16;59.67
79584;BME280;69053;57.338;18.700;2023-05-23T05:55:47;101526.97;;;14.37;59.23
79584;BME280;69053;57.338;18.700;2023-05-23T06:00:48;101527.44;;;14.59;58.29
79584;BME280;69053;57.338;18.700;2023-05-23T06:05:48;101528.81;;;14.75;58.40
79584;BME280;69053;57.338;18.700;2023-05-23T06:10:49;101530.75;;;14.93;58.13
79584;BME280;69053;57.338;18.700;2023-05-23T06:15:49;101524.91;;;15.08;58.56
79584;BME280;69053;57.338;18.700;2023-05-23T06:20:50;101526.06;;;15.19;58.34
79584;BME280;69053;57.338;18.700;2023-05-23T06:25:50;101522.34;;;15.32;58.62
79584;BME280;69053;57.338;18.700;2023-05-23T06:30:51;101522.41;;;15.44;58.32
79584;BME280;69053;57.338;18.700;2023-05-23T06:35:51;101519.50;;;15.57;58.35
79584;BME280;69053;57.338;18.700;2023-05-23T06:40:52;101529.88;;;15.73;57.65
79584;BME280;69053;57.338;18.700;2023-05-23T06:45:52;101527.34;;;15.72;57.87
79584;BME280;69053;57.338;18.700;2023-05-23T06:50:53;101538.91;;;15.81;57.66
79584;BME280;69053;57.338;18.700;2023-05-23T06:55:54;101527.13;;;15.92;57.58
79584;BME280;69053;57.338;18.700;2023-05-23T07:00:54;101520.25;;;16.01;57.64
79584;BME280;69053;57.338;18.700;2023-05-23T07:05:55;101528.53;;;16.13;57.77
79584;BME280;69053;57.338;18.700;2023-05-23T07:10:56;101526.34;;;16.34;57.53
79584;BME280;69053;57.338;18.700;2023-05-23T07:15:56;101525.47;;;16.33;57.68
79584;BME280;69053;57.338;18.700;2023-05-23T07:20:57;101526.56;;;16.32;57.76
79584;BME280;69053;57.338;18.700;2023-05-23T07:25:57;101526.94;;;16.36;58.32
79584;BME280;69053;57.338;18.700;2023-05-23T07:30:58;101510.69;;;16.46;58.07
79584;BME280;69053;57.338;18.700;2023-05-23T07:35:58;101506.78;;;16.65;57.86
79584;BME280;69053;57.338;18.700;2023-05-23T07:40:59;101504.78;;;17.08;57.08
79584;BME280;69053;57.338;18.700;2023-05-23T07:46:00;101488.34;;;17.37;56.40
79584;BME280;69053;57.338;18.700;2023-05-23T07:51:01;101493.63;;;17.67;55.97
79584;BME280;69053;57.338;18.700;2023-05-23T07:56:01;101482.41;;;17.97;55.22
79584;BME280;69053;57.338;18.700;2023-05-23T08:01:02;101479.97;;;18.30;54.51
79584;BME280;69053;57.338;18.700;2023-05-23T08:06:04;101483.16;;;18.72;53.74
79584;BME280;69053;57.338;18.700;2023-05-23T08:11:06;101485.19;;;19.16;52.23
79584;BME280;69053;57.338;18.700;2023-05-23T08:16:07;101484.66;;;19.36;51.50
79584;BME280;69053;57.338;18.700;2023-05-23T08:21:07;101485.16;;;19.55;50.91
79584;BME280;69053;57.338;18.700;2023-05-23T08:26:08;101477.19;;;19.59;50.05
79584;BME280;69053;57.338;18.700;2023-05-23T08:31:08;101472.28;;;19.66;48.67
79584;BME280;69053;57.338;18.700;2023-05-23T08:36:09;101469.03;;;19.69;48.23
79584;BME280;69053;57.338;18.700;2023-05-23T08:41:21;101473.72;;;19.68;47.82
79584;BME280;69053;57.338;18.700;2023-05-23T08:46:22;101471.94;;;19.79;47.46
79584;BME280;69053;57.338;18.700;2023-05-23T08:51:26;101475.16;;;20.26;47.33
79584;BME280;69053;57.338;18.700;2023-05-23T08:56:27;101470.56;;;20.69;46.43
79584;BME280;69053;57.338;18.700;2023-05-23T09:01:28;101470.91;;;20.18;47.14
79584;BME280;69053;57.338;18.700;2023-05-23T09:06:29;101484.97;;;19.62;49.45
79584;BME280;69053;57.338;18.700;2023-05-23T09:11:31;101478.44;;;19.95;50.17
79584;BME280;69053;57.338;18.700;2023-05-23T09:16:36;101481.06;;;20.67;49.26
79584;BME280;69053;57.338;18.700;2023-05-23T09:21:36;101475.50;;;20.34;49.26
79584;BME280;69053;57.338;18.700;2023-05-23T09:26:40;101475.22;;;18.93;52.50
79584;BME280;69053;57.338;18.700;2023-05-23T09:31:41;101473.22;;;17.92;55.77
79584;BME280;69053;57.338;18.700;2023-05-23T09:36:45;101482.38;;;18.09;56.82
79584;BME280;69053;57.338;18.700;2023-05-23T09:41:47;101482.31;;;18.89;55.93
79584;BME280;69053;57.338;18.700;2023-05-23T09:46:49;101469.84;;;19.47;54.48
79584;BME280;69053;57.338;18.700;2023-05-23T09:51:59;101474.56;;;19.47;53.50
79584;BME280;69053;57.338;18.700;2023-05-23T09:57:01;101487.78;;;19.67;53.55
79584;BME280;69053;57.338;18.700;2023-05-23T10:02:05;101473.41;;;19.65;53.62
79584;BME280;69053;57.338;18.700;2023-05-23T10:07:12;101475.75;;;20.00;53.20
79584;BME280;69053;57.338;18.700;2023-05-23T10:22:42;101484.78;;;20.50;51.49
79584;BME280;69053;57.338;18.700;2023-05-23T10:27:43;101473.22;;;20.26;51.59
79584;BME280;69053;57.338;18.700;2023-05-23T10:32:44;101477.00;;;20.15;51.99
79584;BME280;69053;57.338;18.700;2023-05-23T10:37:55;101469.09;;;20.29;51.44
79584;BME280;69053;57.338;18.700;2023-05-23T10:43:19;101467.31;;;20.45;50.74
79584;BME280;69053;57.338;18.700;2023-05-23T10:48:43;101463.84;;;21.02;50.17
79584;BME280;69053;57.338;18.700;2023-05-23T10:53:45;101458.56;;;21.53;49.25
79584;BME280;69053;57.338;18.700;2023-05-23T10:58:45;101466.44;;;21.92;48.38
79584;BME280;69053;57.338;18.700;2023-05-23T11:08:46;101472.56;;;21.31;48.38
79584;BME280;69053;57.338;18.700;2023-05-23T11:13:55;101470.63;;;20.79;49.78
79584;BME280;69053;57.338;18.700;2023-05-23T11:24:17;101469.31;;;20.54;51.14
79584;BME280;69053;57.338;18.700;2023-05-23T11:29:18;101473.63;;;21.15;49.24
79584;BME280;69053;57.338;18.700;2023-05-23T11:34:19;101467.78;;;21.80;47.09
79584;BME280;69053;57.338;18.700;2023-05-23T11:39:21;101460.16;;;22.28;46.75
79584;BME280;69053;57.338;18.700;2023-05-23T11:44:21;101464.25;;;22.25;46.49
79584;BME280;69053;57.338;18.700;2023-05-23T11:49:22;101462.59;;;22.19;46.35
79584;BME280;69053;57.338;18.700;2023-05-23T11:54:24;101463.22;;;22.47;45.46
79584;BME280;69053;57.338;18.700;2023-05-23T11:59:25;101460.69;;;22.51;45.83
79584;BME280;69053;57.338;18.700;2023-05-23T12:04:26;101461.25;;;22.58;45.06
79584;BME280;69053;57.338;18.700;2023-05-23T12:09:26;101452.34;;;22.81;44.50
79584;BME280;69053;57.338;18.700;2023-05-23T12:14:27;101458.41;;;23.09;43.47
79584;BME280;69053;57.338;18.700;2023-05-23T12:19:28;101460.03;;;23.05;43.13
79584;BME280;69053;57.338;18.700;2023-05-23T12:24:28;101453.66;;;22.99;43.16
79584;BME280;69053;57.338;18.700;2023-05-23T12:29:31;101463.94;;;23.04;43.64
79584;BME280;69053;57.338;18.700;2023-05-23T12:34:31;101465.03;;;23.18;43.17
79584;BME280;69053;57.338;18.700;2023-05-23T12:39:33;101464.59;;;23.61;42.03
79584;BME280;69053;57.338;18.700;2023-05-23T12:44:35;101455.69;;;23.64;41.21
79584;BME280;69053;57.338;18.700;2023-05-23T12:49:36;101461.03;;;23.50;41.36
79584;BME280;69053;57.338;18.700;2023-05-23T12:54:37;101451.69;;;23.20;41.89
79584;BME280;69053;57.338;18.700;2023-05-23T12:59:38;101460.41;;;22.62;43.20
79584;BME280;69053;57.338;18.700;2023-05-23T13:04:38;101457.88;;;21.99;44.40
79584;BME280;69053;57.338;18.700;2023-05-23T13:09:39;101462.66;;;21.41;45.65
79584;BME280;69053;57.338;18.700;2023-05-23T13:14:40;101470.59;;;21.16;46.70
79584;BME280;69053;57.338;18.700;2023-05-23T13:19:41;101471.06;;;21.03;47.22
79584;BME280;69053;57.338;18.700;2023-05-23T13:24:42;101458.44;;;21.28;46.80
79584;BME280;69053;57.338;18.700;2023-05-23T13:29:42;101462.22;;;21.75;46.60
79584;BME280;69053;57.338;18.700;2023-05-23T13:34:43;101454.31;;;22.35;44.75
79584;BME280;69053;57.338;18.700;2023-05-23T13:39:44;101456.94;;;23.27;43.73
79584;BME280;69053;57.338;18.700;2023-05-23T13:44:44;101455.31;;;23.86;42.24
79584;BME280;69053;57.338;18.700;2023-05-23T13:49:45;101456.28;;;24.06;41.83
79584;BME280;69053;57.338;18.700;2023-05-23T13:54:45;101447.25;;;24.24;40.76
79584;BME280;69053;57.338;18.700;2023-05-23T13:59:46;101450.38;;;24.47;39.78
79584;BME280;69053;57.338;18.700;2023-05-23T14:04:47;101441.81;;;24.38;39.03
79584;BME280;69053;57.338;18.700;2023-05-23T14:09:49;101443.97;;;24.12;40.67
79584;BME280;69053;57.338;18.700;2023-05-23T14:14:50;101455.88;;;23.83;40.69
79584;BME280;69053;57.338;18.700;2023-05-23T14:19:50;101444.84;;;23.63;41.27
79584;BME280;69053;57.338;18.700;2023-05-23T14:24:51;101462.31;;;23.68;41.03
79584;BME280;69053;57.338;18.700;2023-05-23T14:29:51;101457.81;;;23.72;40.16
79584;BME280;69053;57.338;18.700;2023-05-23T14:34:59;101461.34;;;23.99;39.36
79584;BME280;69053;57.338;18.700;2023-05-23T14:40:10;101455.31;;;23.86;39.56
79584;BME280;69053;57.338;18.700;2023-05-23T14:57:30;101448.78;;;23.51;40.71
79584;BME280;69053;57.338;18.700;2023-05-23T15:02:54;101454.53;;;23.65;41.13
79584;BME280;69053;57.338;18.700;2023-05-23T15:08:29;101454.22;;;23.01;41.89
79584;BME280;69053;57.338;18.700;2023-05-23T15:13:50;101447.63;;;22.61;42.49
79584;BME280;69053;57.338;18.700;2023-05-23T15:18:53;101449.31;;;22.52;42.57
79584;BME280;69053;57.338;18.700;2023-05-23T15:23:53;101446.25;;;22.43;42.06
79584;BME280;69053;57.338;18.700;2023-05-23T15:28:56;101440.38;;;22.24;41.74
79584;BME280;69053;57.338;18.700;2023-05-23T15:33:56;101441.22;;;21.94;42.83
79584;BME280;69053;57.338;18.700;2023-05-23T15:39:04;101442.03;;;21.84;43.41
79584;BME280;69053;57.338;18.700;2023-05-23T15:44:05;101437.31;;;22.05;42.97
79584;BME280;69053;57.338;18.700;2023-05-23T15:49:09;101440.69;;;22.23;42.87
79584;BME280;69053;57.338;18.700;2023-05-23T15:54:10;101435.72;;;22.51;42.50
79584;BME280;69053;57.338;18.700;2023-05-23T15:59:11;101437.31;;;22.77;42.60
79584;BME280;69053;57.338;18.700;2023-05-23T16:04:11;101440.66;;;22.74;42.14
79584;BME280;69053;57.338;18.700;2023-05-23T16:09:12;101436.53;;;22.56;42.98
79584;BME280;69053;57.338;18.700;2023-05-23T16:14:13;101426.81;;;22.48;42.92
79584;BME280;69053;57.338;18.700;2023-05-23T16:19:13;101425.13;;;22.22;42.55
79584;BME280;69053;57.338;18.700;2023-05-23T16:24:14;101415.97;;;21.96;43.21
79584;BME280;69053;57.338;18.700;2023-05-23T16:29:16;101426.59;;;21.30;44.15
79584;BME280;69053;57.338;18.700;2023-05-23T16:34:16;101424.94;;;21.40;44.69
79584;BME280;69053;57.338;18.700;2023-05-23T16:39:17;101425.97;;;21.13;45.05
79584;BME280;69053;57.338;18.700;2023-05-23T16:44:17;101429.66;;;20.81;46.19
79584;BME280;69053;57.338;18.700;2023-05-23T16:49:18;101429.63;;;20.76;46.47
79584;BME280;69053;57.338;18.700;2023-05-23T16:54:18;101426.78;;;20.66;46.43
79584;BME280;69053;57.338;18.700;2023-05-23T16:59:19;101428.25;;;20.41;46.77
79584;BME280;69053;57.338;18.700;2023-05-23T17:04:19;101433.41;;;20.27;46.63
79584;BME280;69053;57.338;18.700;2023-05-23T17:09:23;101440.00;;;19.94;47.87
79584;BME280;69053;57.338;18.700;2023-05-23T17:14:23;101445.19;;;19.41;49.31
79584;BME280;69053;57.338;18.700;2023-05-23T17:19:24;101446.13;;;18.85;51.37
79584;BME280;69053;57.338;18.700;2023-05-23T17:24:25;101445.88;;;18.53;52.33
79584;BME280;69053;57.338;18.700;2023-05-23T17:29:25;101448.38;;;18.04;54.81
79584;BME280;69053;57.338;18.700;2023-05-23T17:34:26;101452.53;;;17.49;57.18
79584;BME280;69053;57.338;18.700;2023-05-23T17:39:27;101467.81;;;17.16;58.76
79584;BME280;69053;57.338;18.700;2023-05-23T17:44:27;101465.75;;;16.76;60.29
79584;BME280;69053;57.338;18.700;2023-05-23T17:49:28;101466.59;;;16.53;61.29
79584;BME280;69053;57.338;18.700;2023-05-23T17:54:28;101474.69;;;16.36;61.62
79584;BME280;69053;57.338;18.700;2023-05-23T17:59:28;101468.75;;;16.08;63.06
79584;BME280;69053;57.338;18.700;2023-05-23T18:04:31;101472.66;;;15.89;64.33
79584;BME280;69053;57.338;18.700;2023-05-23T18:09:32;101480.06;;;15.70;65.31
79584;BME280;69053;57.338;18.700;2023-05-23T18:14:32;101482.31;;;15.43;66.18
79584;BME280;69053;57.338;18.700;2023-05-23T18:19:33;101488.47;;;15.19;67.15
79584;BME280;69053;57.338;18.700;2023-05-23T18:24:34;101491.97;;;15.08;67.40
79584;BME280;69053;57.338;18.700;2023-05-23T18:29:35;101499.50;;;14.94;68.21
79584;BME280;69053;57.338;18.700;2023-05-23T18:34:35;101498.34;;;14.84;68.46
79584;BME280;69053;57.338;18.700;2023-05-23T18:39:36;101500.34;;;14.70;68.64
79584;BME280;69053;57.338;18.700;2023-05-23T18:44:37;101485.72;;;14.51;69.51
79584;BME280;69053;57.338;18.700;2023-05-23T18:49:38;101500.59;;;14.36;69.66
79584;BME280;69053;57.338;18.700;2023-05-23T18:54:38;101501.81;;;14.15;70.47
79584;BME280;69053;57.338;18.700;2023-05-23T18:59:39;101515.41;;;13.97;71.27
79584;BME280;69053;57.338;18.700;2023-05-23T19:04:40;101517.19;;;13.71;71.44
79584;BME280;69053;57.338;18.700;2023-05-23T19:09:43;101520.66;;;13.53;72.63
79584;BME280;69053;57.338;18.700;2023-05-23T19:14:43;101529.53;;;13.35;72.93
79584;BME280;69053;57.338;18.700;2023-05-23T19:19:44;101522.84;;;13.11;72.96
79584;BME280;69053;57.338;18.700;2023-05-23T19:24:44;101535.47;;;12.92;73.00
79584;BME280;69053;57.338;18.700;2023-05-23T19:29:45;101538.00;;;12.73;73.33
79584;BME280;69053;57.338;18.700;2023-05-23T19:34:45;101543.47;;;12.53;74.09
79584;BME280;69053;57.338;18.700;2023-05-23T19:39:47;101541.16;;;12.44;73.94
79584;BME280;69053;57.338;18.700;2023-05-23T19:44:47;101550.16;;;12.37;73.86
79584;BME280;69053;57.338;18.700;2023-05-23T19:49:49;101542.16;;;12.23;74.09
79584;BME280;69053;57.338;18.700;2023-05-23T19:54:49;101558.13;;;12.12;74.23
79584;BME280;69053;57.338;18.700;2023-05-23T19:59:50;101566.25;;;11.99;74.81
79584;BME280;69053;57.338;18.700;2023-05-23T20:04:51;101563.44;;;11.86;75.28
79584;BME280;69053;57.338;18.700;2023-05-23T20:09:51;101575.00;;;11.81;74.97
79584;BME280;69053;57.338;18.700;2023-05-23T20:14:52;101574.97;;;11.74;75.59
79584;BME280;69053;57.338;18.700;2023-05-23T20:19:52;101577.00;;;11.66;75.61
79584;BME280;69053;57.338;18.700;2023-05-23T20:24:53;101579.72;;;11.59;75.37
79584;BME280;69053;57.338;18.700;2023-05-23T20:29:53;101596.38;;;11.42;75.96
79584;BME280;69053;57.338;18.700;2023-05-23T20:34:54;101594.31;;;11.16;76.71
79584;BME280;69053;57.338;18.700;2023-05-23T20:39:54;101593.13;;;10.97;77.69
79584;BME280;69053;57.338;18.700;2023-05-23T20:44:55;101595.75;;;10.84;77.92
79584;BME280;69053;57.338;18.700;2023-05-23T20:49:57;101597.00;;;10.81;77.48
79584;BME280;69053;57.338;18.700;2023-05-23T20:54:58;101605.16;;;10.81;77.19
79584;BME280;69053;57.338;18.700;2023-05-23T21:00:00;101592.56;;;10.80;77.42
79584;BME280;69053;57.338;18.700;2023-05-23T21:05:00;101597.13;;;10.73;77.09
79584;BME280;69053;57.338;18.700;2023-05-23T21:10:02;101595.16;;;10.67;77.38
79584;BME280;69053;57.338;18.700;2023-05-23T21:15:02;101598.44;;;10.56;77.94
79584;BME280;69053;57.338;18.700;2023-05-23T21:20:03;101599.91;;;10.37;78.38
79584;BME280;69053;57.338;18.700;2023-05-23T21:25:04;101602.63;;;10.22;78.36
79584;BME280;69053;57.338;18.700;2023-05-23T21:30:06;101600.59;;;10.09;78.08
79584;BME280;69053;57.338;18.700;2023-05-23T21:35:07;101610.19;;;9.90;78.56
79584;BME280;69053;57.338;18.700;2023-05-23T21:40:08;101608.06;;;9.70;78.70
79584;BME280;69053;57.338;18.700;2023-05-23T21:45:09;101609.75;;;9.56;78.75
79584;BME280;69053;57.338;18.700;2023-05-23T21:50:10;101612.66;;;9.40;79.79
79584;BME280;69053;57.338;18.700;2023-05-23T21:55:10;101608.88;;;9.26;79.75
79584;BME280;69053;57.338;18.700;2023-05-23T22:00:11;101611.19;;;9.14;79.68
79584;BME280;69053;57.338;18.700;2023-05-23T22:05:12;101621.00;;;9.00;79.66
79584;BME280;69053;57.338;18.700;2023-05-23T22:10:12;101613.97;;;8.91;79.77
79584;BME280;69053;57.338;18.700;2023-05-23T22:15:13;101617.22;;;8.87;79.98
79584;BME280;69053;57.338;18.700;2023-05-23T22:20:13;101607.00;;;8.74;79.99
79584;BME280;69053;57.338;18.700;2023-05-23T22:25:15;101607.22;;;8.64;80.40
79584;BME280;69053;57.338;18.700;2023-05-23T22:30:16;101607.47;;;8.54;80.33
79584;BME280;69053;57.338;18.700;2023-05-23T22:35:16;101610.59;;;8.43;81.09
79584;BME280;69053;57.338;18.700;2023-05-23T22:40:17;101612.69;;;8.33;81.52
79584;BME280;69053;57.338;18.700;2023-05-23T22:45:17;101610.00;;;8.24;81.49
79584;BME280;69053;57.338;18.700;2023-05-23T22:50:19;101607.16;;;8.18;81.34
79584;BME280;69053;57.338;18.700;2023-05-23T22:55:21;101609.56;;;8.13;81.93
79584;BME280;69053;57.338;18.700;2023-05-23T23:00:22;101603.34;;;8.04;81.64
79584;BME280;69053;57.338;18.700;2023-05-23T23:05:23;101605.72;;;7.99;82.21
79584;BME280;69053;57.338;18.700;2023-05-23T23:10:23;101604.59;;;7.93;81.94
79584;BME280;69053;57.338;18.700;2023-05-23T23:15:24;101604.78;;;7.83;82.20
79584;BME280;69053;57.338;18.700;2023-05-23T23:20:24;101592.78;;;7.78;82.47
79584;BME280;69053;57.338;18.700;2023-05-23T23:25:25;101599.59;;;7.74;82.53
79584;BME280;69053;57.338;18.700;2023-05-23T23:30:26;101602.84;;;7.61;82.62
79584;BME280;69053;57.338;18.700;2023-05-23T23:35:26;101601.84;;;7.54;82.83
79584;BME280;69053;57.338;18.700;2023-05-23T23:40:26;101602.03;;;7.44;82.89
79584;BME280;69053;57.338;18.700;2023-05-23T23:45:27;101601.06;;;7.37;82.81
79584;BME280;69053;57.338;18.700;2023-05-23T23:50:27;101609.84;;;7.30;82.67
79584;BME280;69053;57.338;18.700;2023-05-23T23:55:30;101612.78;;;7.29;82.24
